Time;durP1;ratioP1;P1;durP2;ratioP2;P2;SDS_P1;SDS_P2;PMS_P1;PMS_P2;Temp;Humidity;BMP_temperature;BMP_pressure;BME280_temperature;BME280_humidity;BME280_pressure;Samples;Min_cycle;Max_cycle;Signal;HPM_P1;HPM_P2
2023/06/07 00:02:17;;;;;;;7.30;4.73;;;16.30;20.90;;;;;;5019672;28;20467;-65
2023/06/07 00:04:45;;;;;;;7.17;4.43;;;16.20;21.00;;;;;;5028301;28;20463;-65
2023/06/07 00:07:11;;;;;;;6.47;4.77;;;16.20;22.10;;;;;;5026884;28;20491;-65
2023/06/07 00:09:38;;;;;;;6.23;4.03;;;16.10;21.40;;;;;;5031230;28;20538;-66
2023/06/07 00:12:08;;;;;;;6.53;4.30;;;16.10;21.40;;;;;;5026842;28;20478;-65
2023/06/07 00:14:35;;;;;;;6.83;4.03;;;16.10;21.60;;;;;;5025485;28;20470;-65
2023/06/07 00:17:02;;;;;;;7.20;4.63;;;16.00;21.60;;;;;;5030582;28;20504;-65
2023/06/07 00:19:29;;;;;;;6.10;4.00;;;16.00;21.60;;;;;;5021399;28;20464;-65
2023/06/07 00:21:57;;;;;;;6.40;4.10;;;16.00;21.80;;;;;;5026671;28;20889;-65
2023/06/07 00:24:24;;;;;;;6.30;4.20;;;15.90;22.00;;;;;;5021145;28;20512;-66
2023/06/07 00:26:51;;;;;;;7.53;4.83;;;15.90;22.20;;;;;;5020913;28;21002;-65
2023/06/07 00:29:19;;;;;;;5.93;4.00;;;15.80;22.30;;;;;;5028234;28;20466;-65
2023/06/07 00:31:46;;;;;;;6.80;4.37;;;15.80;22.10;;;;;;5022023;28;20479;-65
2023/06/07 00:34:12;;;;;;;6.83;4.77;;;15.80;22.20;;;;;;5026987;28;20466;-65
2023/06/07 00:36:39;;;;;;;6.37;4.13;;;15.70;22.50;;;;;;5026127;28;21175;-66
2023/06/07 00:39:06;;;;;;;8.00;3.97;;;15.70;22.60;;;;;;5019792;28;20459;-66
2023/06/07 00:41:32;;;;;;;7.30;4.63;;;15.70;22.50;;;;;;5022344;28;20569;-65
2023/06/07 00:44:01;;;;;;;7.07;4.47;;;15.70;22.40;;;;;;5026511;28;20905;-66
2023/06/07 00:46:31;;;;;;;7.83;5.23;;;15.70;22.40;;;;;;5024113;28;20569;-66
2023/06/07 00:48:59;;;;;;;6.87;4.67;;;15.70;22.30;;;;;;5026955;28;20813;-66
2023/06/07 00:51:29;;;;;;;7.93;3.87;;;15.70;22.30;;;;;;5026202;28;20521;-66
2023/06/07 00:53:58;;;;;;;8.07;4.60;;;15.70;22.50;;;;;;5024100;28;20480;-66
2023/06/07 00:56:26;;;;;;;6.63;4.50;;;15.60;22.50;;;;;;5019148;28;21007;-65
2023/06/07 00:58:53;;;;;;;6.63;4.63;;;15.60;22.50;;;;;;5026076;28;20818;-65
2023/06/07 01:01:20;;;;;;;8.57;4.73;;;15.60;22.60;;;;;;5023237;28;20478;-65
2023/06/07 01:03:48;;;;;;;7.50;5.30;;;15.50;22.90;;;;;;5020137;28;20482;-64
2023/06/07 01:06:14;;;;;;;7.37;4.33;;;15.50;22.80;;;;;;5023188;28;20487;-65
2023/06/07 01:08:42;;;;;;;7.13;4.10;;;15.40;22.70;;;;;;5022601;28;20462;-65
2023/06/07 01:11:10;;;;;;;6.57;4.20;;;15.40;22.60;;;;;;5024280;28;20459;-65
2023/06/07 01:13:39;;;;;;;7.13;4.57;;;15.40;22.80;;;;;;5022265;28;20509;-65
2023/06/07 01:16:07;;;;;;;7.40;5.10;;;15.40;22.70;;;;;;5018745;28;20465;-65
2023/06/07 01:18:34;;;;;;;8.20;4.63;;;15.40;22.60;;;;;;5023217;28;20466;-65
2023/06/07 01:21:04;;;;;;;7.20;4.60;;;15.40;22.70;;;;;;5024731;28;20496;-65
2023/06/07 01:23:32;;;;;;;7.43;4.27;;;15.30;23.00;;;;;;5023091;28;20501;-65
2023/06/07 01:26:00;;;;;;;7.53;5.40;;;15.40;22.70;;;;;;5025761;28;20462;-65
2023/06/07 01:28:31;;;;;;;7.70;4.60;;;15.30;22.80;;;;;;5024047;28;21025;-65
2023/06/07 01:30:59;;;;;;;7.80;5.73;;;15.30;23.30;;;;;;5022386;28;20483;-65
2023/06/07 01:33:26;;;;;;;7.07;4.77;;;15.30;23.20;;;;;;5030013;28;20545;-66
2023/06/07 01:35:54;;;;;;;7.80;5.30;;;15.30;23.10;;;;;;5028011;28;20554;-65
2023/06/07 01:38:22;;;;;;;6.83;5.67;;;15.20;22.90;;;;;;5040850;28;20443;-65
2023/06/07 01:40:51;;;;;;;8.60;5.70;;;15.30;22.90;;;;;;5023757;28;20557;-64
2023/06/07 01:43:21;;;;;;;7.20;5.67;;;15.20;22.90;;;;;;5022208;28;20466;-65
2023/06/07 01:45:49;;;;;;;8.37;5.67;;;15.20;22.80;;;;;;5031027;28;20471;-66
2023/06/07 01:48:16;;;;;;;7.40;5.47;;;15.20;22.90;;;;;;5047499;28;20890;-66
2023/06/07 01:50:43;;;;;;;8.17;5.53;;;15.20;23.10;;;;;;5028122;28;20551;-66
2023/06/07 01:53:10;;;;;;;10.10;5.97;;;15.10;23.40;;;;;;5022972;28;20918;-65
2023/06/07 01:55:36;;;;;;;9.10;5.60;;;15.00;23.80;;;;;;5023802;28;20459;-65
2023/06/07 01:58:19;;;;;;;11.70;6.63;;;15.00;24.00;;;;;;5019206;28;20502;-65
2023/06/07 02:00:54;;;;;;;9.43;6.40;;;14.90;24.10;;;;;;5023302;28;20482;-66
2023/06/07 02:03:30;;;;;;;8.53;6.37;;;14.90;24.10;;;;;;5021915;28;20465;-65
2023/06/07 02:06:02;;;;;;;8.27;5.90;;;14.90;24.20;;;;;;5024189;28;20469;-65
2023/06/07 02:08:31;;;;;;;8.50;5.90;;;14.80;24.40;;;;;;5022820;28;20483;-66
2023/06/07 02:10:59;;;;;;;9.20;6.60;;;14.80;24.30;;;;;;5022251;28;20530;-65
2023/06/07 02:13:28;;;;;;;12.43;7.67;;;14.80;24.50;;;;;;5021154;28;20487;-65
2023/06/07 02:15:55;;;;;;;7.40;5.80;;;14.80;24.50;;;;;;5024679;28;20477;-65
2023/06/07 02:18:24;;;;;;;8.10;5.77;;;14.70;24.40;;;;;;5023295;28;20461;-65
2023/06/07 02:20:51;;;;;;;8.47;6.67;;;14.70;24.40;;;;;;5023723;28;20995;-65
2023/06/07 02:23:18;;;;;;;7.47;5.17;;;14.70;24.40;;;;;;5022477;28;20550;-66
2023/06/07 02:25:45;;;;;;;7.77;5.00;;;14.70;24.60;;;;;;5021704;28;20471;-66
2023/06/07 02:28:11;;;;;;;9.50;6.40;;;14.70;24.40;;;;;;5023789;28;21147;-65
2023/06/07 02:30:39;;;;;;;8.67;6.07;;;14.70;24.90;;;;;;5022773;28;20476;-65
2023/06/07 02:33:13;;;;;;;7.50;5.57;;;14.60;25.00;;;;;;5022012;28;20979;-66
2023/06/07 02:35:40;;;;;;;10.37;6.33;;;14.70;25.20;;;;;;5021650;28;20502;-66
2023/06/07 02:38:08;;;;;;;8.50;6.60;;;14.50;25.50;;;;;;5023551;28;20485;-65
2023/06/07 02:40:35;;;;;;;8.80;7.33;;;14.50;25.30;;;;;;5024555;28;20553;-65
2023/06/07 02:43:01;;;;;;;8.50;6.43;;;14.40;25.20;;;;;;5022473;28;20467;-66
2023/06/07 02:45:28;;;;;;;9.17;7.13;;;14.30;25.40;;;;;;5024280;28;20463;-65
2023/06/07 02:47:56;;;;;;;8.60;6.67;;;14.30;25.30;;;;;;5024504;28;20475;-65
2023/06/07 02:50:23;;;;;;;9.10;7.30;;;14.20;25.80;;;;;;5024796;28;20853;-66
2023/06/07 02:52:50;;;;;;;14.17;6.50;;;14.10;26.60;;;;;;5011622;28;20471;-66
2023/06/07 02:55:17;;;;;;;8.97;7.27;;;14.10;26.30;;;;;;5022360;28;20455;-66
2023/06/07 02:57:44;;;;;;;10.00;8.27;;;14.00;26.40;;;;;;5023060;28;20489;-66
2023/06/07 03:00:12;;;;;;;13.07;9.17;;;14.00;26.30;;;;;;5021985;28;20851;-65
2023/06/07 03:02:39;;;;;;;13.13;10.07;;;14.00;26.40;;;;;;5021106;28;20554;-65
2023/06/07 03:05:08;;;;;;;11.40;9.43;;;14.00;26.80;;;;;;5020922;28;20471;-64
2023/06/07 03:07:35;;;;;;;10.93;9.70;;;14.00;27.10;;;;;;5024511;28;20487;-65
2023/06/07 03:10:02;;;;;;;10.90;9.07;;;13.90;27.00;;;;;;5026884;28;20467;-66
2023/06/07 03:12:29;;;;;;;12.93;10.57;;;14.00;27.30;;;;;;5027212;28;20462;-65
2023/06/07 03:14:56;;;;;;;9.67;8.67;;;13.90;27.50;;;;;;5028068;28;20466;-64
2023/06/07 03:17:23;;;;;;;10.27;9.17;;;13.90;27.70;;;;;;5029378;28;20482;-64
2023/06/07 03:19:50;;;;;;;11.03;8.40;;;13.90;27.90;;;;;;5030092;28;20466;-65
2023/06/07 03:22:21;;;;;;;12.20;8.30;;;13.90;28.10;;;;;;5032673;28;20463;-65
2023/06/07 03:24:49;;;;;;;12.27;9.83;;;13.90;28.10;;;;;;5030282;28;20499;-64
2023/06/07 03:27:17;;;;;;;9.10;8.10;;;13.90;28.10;;;;;;5029700;28;20487;-64
2023/06/07 03:29:44;;;;;;;10.93;9.77;;;13.90;28.30;;;;;;5030857;28;20471;-64
2023/06/07 03:32:11;;;;;;;11.30;10.07;;;13.90;28.30;;;;;;5030853;28;21041;-65
2023/06/07 03:34:41;;;;;;;11.53;9.80;;;13.90;28.30;;;;;;5028328;28;20465;-65
2023/06/07 03:37:08;;;;;;;11.97;9.67;;;13.90;28.10;;;;;;5029233;28;21062;-65
2023/06/07 03:39:36;;;;;;;12.53;9.50;;;13.90;28.20;;;;;;5029134;28;20462;-65
2023/06/07 03:42:03;;;;;;;11.33;9.20;;;13.80;28.10;;;;;;5030524;28;20465;-65
2023/06/07 03:44:29;;;;;;;10.00;8.90;;;13.80;28.30;;;;;;5024605;28;20463;-64
2023/06/07 03:46:56;;;;;;;11.63;9.70;;;13.90;28.30;;;;;;5030660;28;20486;-65
2023/06/07 03:49:23;;;;;;;14.77;8.67;;;13.90;28.30;;;;;;5030302;28;20482;-65
2023/06/07 03:51:50;;;;;;;15.97;9.53;;;13.90;28.20;;;;;;5030861;28;20459;-66
2023/06/07 03:54:17;;;;;;;12.07;9.27;;;13.90;28.20;;;;;;5029108;28;20463;-65
2023/06/07 03:56:45;;;;;;;10.23;8.17;;;13.90;28.20;;;;;;5027590;28;20486;-64
2023/06/07 03:59:13;;;;;;;9.67;7.43;;;13.90;28.20;;;;;;5030153;28;20467;-64
2023/06/07 04:01:40;;;;;;;11.07;8.57;;;13.90;28.00;;;;;;5029182;28;20490;-64
2023/06/07 04:04:06;;;;;;;9.70;7.23;;;14.00;28.20;;;;;;5030275;28;20982;-64
2023/06/07 04:06:34;;;;;;;9.80;8.10;;;14.00;28.20;;;;;;5028790;28;20486;-65
2023/06/07 04:09:02;;;;;;;9.07;7.33;;;14.00;27.90;;;;;;5026955;28;20489;-64
2023/06/07 04:11:29;;;;;;;11.10;8.00;;;14.10;27.90;;;;;;5029691;28;20510;-64
2023/06/07 04:13:57;;;;;;;10.43;7.70;;;14.10;27.60;;;;;;5029973;28;20884;-65
2023/06/07 04:16:24;;;;;;;10.90;8.50;;;14.10;27.80;;;;;;5028336;28;20482;-65
2023/06/07 04:18:51;;;;;;;9.73;8.00;;;14.20;27.80;;;;;;5030370;28;20865;-67
2023/06/07 04:21:17;;;;;;;11.20;8.03;;;14.20;27.50;;;;;;5030450;28;20470;-65
2023/06/07 04:23:44;;;;;;;10.77;8.60;;;14.20;27.70;;;;;;5029612;28;20462;-67
2023/06/07 04:26:11;;;;;;;10.93;9.13;;;14.30;27.60;;;;;;5026435;28;20482;-66
2023/06/07 04:28:41;;;;;;;10.83;8.10;;;14.40;27.80;;;;;;5029698;28;20478;-65
2023/06/07 04:31:12;;;;;;;8.80;6.87;;;14.90;28.40;;;;;;5028775;28;20554;-65
2023/06/07 04:33:39;;;;;;;9.40;6.93;;;16.10;25.60;;;;;;5029082;28;20517;-65
2023/06/07 04:36:08;;;;;;;9.20;7.20;;;17.30;21.00;;;;;;5026499;28;20951;-66
2023/06/07 04:38:35;;;;;;;11.40;6.93;;;18.40;17.90;;;;;;5026155;28;20553;-66
2023/06/07 04:41:06;;;;;;;8.53;6.60;;;19.30;15.60;;;;;;5029211;28;20463;-64
2023/06/07 04:43:35;;;;;;;8.13;6.30;;;20.10;13.60;;;;;;5027305;28;20471;-65
2023/06/07 04:46:02;;;;;;;9.97;5.93;;;20.90;11.70;;;;;;5025378;28;20827;-65
2023/06/07 04:48:31;;;;;;;8.80;5.30;;;21.60;10.20;;;;;;5027750;28;20490;-65
2023/06/07 04:51:03;;;;;;;7.60;5.27;;;22.00;8.90;;;;;;5022754;28;20550;-66
2023/06/07 04:53:34;;;;;;;8.30;6.30;;;22.10;8.30;;;;;;5031984;28;20466;-65
2023/06/07 04:56:00;;;;;;;8.33;5.67;;;21.40;9.40;;;;;;5042761;28;20471;-65
2023/06/07 04:58:27;;;;;;;8.50;5.77;;;21.80;9.60;;;;;;5036850;28;20538;-65
2023/06/07 05:00:56;;;;;;;10.03;6.50;;;22.70;7.90;;;;;;5025709;28;20475;-66
2023/06/07 05:03:24;;;;;;;7.60;5.73;;;23.60;6.00;;;;;;5022258;28;20876;-65
2023/06/07 05:05:53;;;;;;;6.70;5.47;;;24.50;4.40;;;;;;5021407;28;20562;-66
2023/06/07 05:08:20;;;;;;;8.10;6.33;;;25.30;2.70;;;;;;5027430;28;20982;-64
2023/06/07 05:10:47;;;;;;;9.47;5.87;;;25.90;1.40;;;;;;5025369;28;20491;-66
2023/06/07 05:13:14;;;;;;;9.70;6.60;;;26.50;1.00;;;;;;5025359;28;20465;-65
2023/06/07 05:15:40;;;;;;;13.53;5.97;;;27.20;1.00;;;;;;5020802;28;20914;-67
2023/06/07 05:18:07;;;;;;;9.33;5.53;;;27.90;1.00;;;;;;5026308;28;20494;-67
2023/06/07 05:20:34;;;;;;;10.67;6.13;;;28.50;1.00;;;;;;5027964;28;20463;-67
2023/06/07 05:23:02;;;;;;;9.27;5.70;;;29.10;1.00;;;;;;5023406;28;20467;-66
2023/06/07 05:25:29;;;;;;;9.90;5.97;;;29.80;1.00;;;;;;5024222;28;20467;-65
2023/06/07 05:27:55;;;;;;;8.03;6.00;;;30.40;1.00;;;;;;5024751;28;22935;-66
2023/06/07 05:30:22;;;;;;;7.70;5.40;;;30.80;1.00;;;;;;5024858;28;20976;-68
2023/06/07 05:32:51;;;;;;;7.40;5.03;;;31.30;1.00;;;;;;5027294;28;20462;-68
2023/06/07 05:35:18;;;;;;;7.30;5.07;;;31.80;1.00;;;;;;5025243;28;20470;-66
2023/06/07 05:37:45;;;;;;;8.53;5.57;;;32.30;1.00;;;;;;5024115;28;20510;-65
2023/06/07 05:40:17;;;;;;;6.90;5.40;;;32.80;1.00;;;;;;5025112;28;20463;-65
2023/06/07 05:42:44;;;;;;;7.40;4.67;;;33.40;1.00;;;;;;5025501;28;20863;-65
2023/06/07 05:45:12;;;;;;;6.90;5.50;;;34.00;1.00;;;;;;5026387;28;20981;-66
2023/06/07 05:47:40;;;;;;;9.63;6.07;;;34.60;1.00;;;;;;5026457;28;20483;-65
2023/06/07 05:50:10;;;;;;;7.43;5.43;;;35.20;1.00;;;;;;5025557;28;20485;-65
2023/06/07 05:52:36;;;;;;;6.43;5.17;;;35.60;1.00;;;;;;5026753;28;20555;-64
2023/06/07 05:55:04;;;;;;;9.40;5.67;;;36.10;1.00;;;;;;5034308;22;20507;-65
2023/06/07 05:57:32;;;;;;;5.47;4.43;;;36.90;1.00;;;;;;5021718;28;20562;-65
2023/06/07 05:59:58;;;;;;;6.17;4.93;;;37.60;1.00;;;;;;5029395;28;20474;-65
2023/06/07 06:02:28;;;;;;;6.00;4.50;;;38.30;1.00;;;;;;5029179;28;20891;-66
2023/06/07 06:04:55;;;;;;;7.07;4.83;;;38.90;1.00;;;;;;5025275;28;20470;-64
2023/06/07 06:07:22;;;;;;;6.10;4.77;;;39.50;1.00;;;;;;5027513;28;20561;-64
2023/06/07 06:09:48;;;;;;;5.77;4.50;;;39.60;1.00;;;;;;5027220;28;20565;-67
2023/06/07 06:12:16;;;;;;;7.50;5.30;;;39.40;1.00;;;;;;5030281;28;20467;-67
2023/06/07 06:14:44;;;;;;;6.90;4.87;;;39.90;1.00;;;;;;5021405;28;20550;-65
2023/06/07 06:17:10;;;;;;;9.53;4.90;;;40.40;1.00;;;;;;5026637;28;20605;-65
2023/06/07 06:19:37;;;;;;;6.80;5.40;;;40.60;1.00;;;;;;5030446;28;20462;-65
2023/06/07 06:22:04;;;;;;;7.17;5.03;;;40.80;1.00;;;;;;5027078;28;21278;-65
2023/06/07 06:24:30;;;;;;;6.93;5.17;;;41.20;1.00;;;;;;5024157;28;20459;-65
2023/06/07 06:26:57;;;;;;;8.80;5.47;;;41.60;1.00;;;;;;5029324;28;20497;-65
2023/06/07 06:29:24;;;;;;;6.10;4.90;;;42.10;1.00;;;;;;5020374;28;20479;-65
2023/06/07 06:31:52;;;;;;;6.07;5.17;;;42.40;1.00;;;;;;5026567;28;20493;-65
2023/06/07 06:34:19;;;;;;;6.70;4.70;;;42.70;1.00;;;;;;5025458;28;20567;-65
2023/06/07 06:36:46;;;;;;;6.00;4.37;;;43.20;1.00;;;;;;5024562;28;20487;-64
2023/06/07 06:39:14;;;;;;;6.50;5.30;;;43.80;1.00;;;;;;5025577;28;20487;-64
2023/06/07 06:41:40;;;;;;;8.53;5.20;;;44.40;1.00;;;;;;5026138;28;20470;-64
2023/06/07 06:44:07;;;;;;;6.60;5.13;;;45.00;1.00;;;;;;5027386;28;20467;-64
2023/06/07 06:46:34;;;;;;;7.50;4.70;;;45.60;1.00;;;;;;5027146;28;20487;-65
2023/06/07 06:49:02;;;;;;;5.90;5.23;;;45.70;1.00;;;;;;5027037;28;20501;-64
2023/06/07 06:51:29;;;;;;;5.40;4.80;;;46.00;1.00;;;;;;5024649;28;20467;-64
2023/06/07 06:53:55;;;;;;;5.50;4.40;;;46.10;1.00;;;;;;5026287;28;20459;-65
2023/06/07 06:56:23;;;;;;;7.90;5.07;;;46.40;1.00;;;;;;5024520;28;20478;-64
2023/06/07 06:58:49;;;;;;;7.73;4.93;;;46.60;1.00;;;;;;5023600;28;20556;-65
2023/06/07 07:01:16;;;;;;;10.40;5.50;;;47.10;1.00;;;;;;5023277;28;20545;-64
2023/06/07 07:03:43;;;;;;;6.37;5.60;;;47.50;1.00;;;;;;5029363;28;21017;-65
2023/06/07 07:06:11;;;;;;;6.80;4.60;;;47.80;1.00;;;;;;5026495;28;20483;-64
2023/06/07 07:08:39;;;;;;;6.20;4.83;;;47.80;1.00;;;;;;5027369;28;20475;-64
2023/06/07 07:11:06;;;;;;;7.10;4.30;;;48.40;1.00;;;;;;5025163;28;20541;-65
2023/06/07 07:13:32;;;;;;;7.43;4.47;;;48.90;1.00;;;;;;5027223;28;20459;-65
2023/06/07 07:15:59;;;;;;;9.50;4.70;;;49.40;1.00;;;;;;5025379;28;20467;-64
2023/06/07 07:18:26;;;;;;;6.80;4.50;;;49.80;1.00;;;;;;5029790;28;20494;-64
2023/06/07 07:20:53;;;;;;;5.40;4.50;;;50.30;1.00;;;;;;5026323;28;20473;-64
2023/06/07 07:23:21;;;;;;;5.77;4.97;;;50.80;1.00;;;;;;5026055;28;20992;-65
2023/06/07 07:25:47;;;;;;;8.43;4.60;;;51.00;1.00;;;;;;5025790;28;20783;-67
2023/06/07 07:28:14;;;;;;;5.43;4.40;;;51.10;1.00;;;;;;5027030;28;20486;-65
2023/06/07 07:30:41;;;;;;;5.53;4.53;;;51.20;1.00;;;;;;5026722;28;20470;-66
2023/06/07 07:33:07;;;;;;;8.60;4.70;;;51.50;1.00;;;;;;5016615;28;22740;-65
2023/06/07 07:35:34;;;;;;;5.53;4.50;;;51.30;1.00;;;;;;5022799;28;20489;-65
2023/06/07 07:38:02;;;;;;;4.73;3.73;;;51.30;1.00;;;;;;5015463;28;20486;-65
2023/06/07 07:40:30;;;;;;;4.90;3.60;;;51.60;1.00;;;;;;5023603;28;20467;-65
2023/06/07 07:42:58;;;;;;;4.40;3.20;;;52.10;1.00;;;;;;5023917;28;20525;-67
2023/06/07 07:45:26;;;;;;;5.87;4.77;;;52.60;1.00;;;;;;5025199;28;20494;-67
2023/06/07 07:47:52;;;;;;;4.90;4.03;;;53.10;1.00;;;;;;5020333;28;20494;-66
2023/06/07 07:50:19;;;;;;;6.37;3.90;;;53.10;1.00;;;;;;5026034;28;20484;-66
2023/06/07 07:52:46;;;;;;;4.40;3.47;;;53.10;1.00;;;;;;5026252;28;20473;-67
2023/06/07 07:55:13;;;;;;;5.10;3.90;;;53.50;1.00;;;;;;5023813;28;20462;-67
2023/06/07 07:57:41;;;;;;;4.50;3.60;;;53.60;1.00;;;;;;5024553;28;20565;-67
2023/06/07 08:00:10;;;;;;;4.93;3.27;;;53.50;1.00;;;;;;5026473;28;20473;-65
2023/06/07 08:02:37;;;;;;;4.57;3.50;;;53.40;1.00;;;;;;5027345;28;20480;-66
2023/06/07 08:05:05;;;;;;;5.20;3.60;;;53.60;1.00;;;;;;5027345;28;20469;-66
2023/06/07 08:07:32;;;;;;;4.03;3.40;;;53.80;1.00;;;;;;5032554;28;20488;-66
2023/06/07 08:09:59;;;;;;;5.93;3.30;;;53.90;1.00;;;;;;5027187;28;20494;-66
2023/06/07 08:12:25;;;;;;;5.03;3.77;;;54.30;1.00;;;;;;5028314;28;20470;-67
2023/06/07 08:14:54;;;;;;;6.57;3.23;;;54.80;1.00;;;;;;5029195;28;20474;-66
2023/06/07 08:17:20;;;;;;;4.40;2.90;;;54.80;1.00;;;;;;5029850;28;21108;-67
2023/06/07 08:19:48;;;;;;;4.40;2.87;;;54.40;1.00;;;;;;5028469;28;20540;-66
2023/06/07 08:22:14;;;;;;;4.30;3.20;;;53.90;1.00;;;;;;5029970;28;20458;-66
2023/06/07 08:24:41;;;;;;;4.73;2.97;;;53.30;1.00;;;;;;5028184;28;20473;-66
2023/06/07 08:27:08;;;;;;;4.10;3.00;;;52.60;1.00;;;;;;5027227;28;20493;-66
2023/06/07 08:29:35;;;;;;;5.17;2.97;;;52.60;1.00;;;;;;5028043;28;20532;-67
2023/06/07 08:32:03;;;;;;;4.87;3.47;;;52.30;1.00;;;;;;5026426;28;20474;-67
2023/06/07 08:34:30;;;;;;;3.93;2.73;;;52.40;1.00;;;;;;5028764;28;21130;-65
2023/06/07 08:36:57;;;;;;;4.70;2.97;;;52.90;1.00;;;;;;5028959;28;20478;-65
2023/06/07 08:39:23;;;;;;;4.70;2.83;;;53.40;1.00;;;;;;5028050;28;20481;-64
2023/06/07 08:41:50;;;;;;;5.43;2.90;;;53.00;1.00;;;;;;5028415;28;20474;-64
2023/06/07 08:44:17;;;;;;;4.63;2.70;;;50.50;1.00;;;;;;5028743;28;20489;-63
2023/06/07 08:46:46;;;;;;;5.43;2.70;;;49.50;1.00;;;;;;5026712;28;20490;-63
2023/06/07 08:49:14;;;;;;;5.03;3.17;;;49.60;1.00;;;;;;5027673;28;20486;-63
2023/06/07 08:51:43;;;;;;;4.00;2.20;;;50.20;1.00;;;;;;5027625;28;20474;-64
2023/06/07 08:54:13;;;;;;;3.87;2.20;;;50.70;1.00;;;;;;5028316;28;20520;-64
2023/06/07 08:56:41;;;;;;;5.97;2.80;;;51.60;1.00;;;;;;5029515;28;20489;-63
2023/06/07 08:59:09;;;;;;;4.03;2.37;;;52.50;1.00;;;;;;5027453;28;20466;-64
2023/06/07 09:01:37;;;;;;;7.80;3.00;;;53.20;1.00;;;;;;5022053;28;21030;-64
2023/06/07 09:04:04;;;;;;;6.03;2.47;;;54.00;1.00;;;;;;5025169;28;20469;-63
2023/06/07 09:06:34;;;;;;;3.40;1.80;;;54.40;1.00;;;;;;5024655;28;20490;-64
2023/06/07 09:09:02;;;;;;;3.70;1.97;;;54.70;1.00;;;;;;5027906;28;20454;-63
2023/06/07 09:11:30;;;;;;;4.63;2.27;;;55.00;1.00;;;;;;5026594;28;20463;-64
2023/06/07 09:13:57;;;;;;;4.93;2.63;;;55.40;1.00;;;;;;5027155;28;20471;-64
2023/06/07 09:16:24;;;;;;;3.80;2.17;;;55.40;1.00;;;;;;5022499;28;20483;-63
2023/06/07 09:18:53;;;;;;;3.87;2.17;;;55.60;1.00;;;;;;5027132;28;20470;-64
2023/06/07 09:21:22;;;;;;;4.70;2.20;;;54.90;1.00;;;;;;5023719;28;20512;-64
2023/06/07 09:23:50;;;;;;;4.87;2.20;;;53.10;1.00;;;;;;5027458;28;20821;-64
2023/06/07 09:26:17;;;;;;;4.70;2.23;;;50.80;1.00;;;;;;5026555;28;20486;-65
2023/06/07 09:28:45;;;;;;;4.20;2.03;;;48.70;1.00;;;;;;5024805;28;20469;-66
2023/06/07 09:31:13;;;;;;;3.80;2.23;;;46.80;1.00;;;;;;5026669;28;20475;-64
2023/06/07 09:33:41;;;;;;;5.07;2.63;;;45.10;1.00;;;;;;5027686;28;20546;-65
2023/06/07 09:36:09;;;;;;;4.73;2.60;;;43.10;1.00;;;;;;5027841;28;20469;-62
2023/06/07 09:38:36;;;;;;;4.63;2.57;;;41.10;1.00;;;;;;5026877;28;20483;-65
2023/06/07 09:41:05;;;;;;;4.27;2.20;;;39.50;1.00;;;;;;5026101;28;20497;-64
2023/06/07 09:43:43;;;;;;;4.47;2.30;;;38.40;1.00;;;;;;5026493;28;20487;-62
2023/06/07 09:46:10;;;;;;;4.70;2.57;;;37.40;1.00;;;;;;5025350;28;20986;-63
2023/06/07 09:48:47;;;;;;;4.93;2.67;;;36.70;1.00;;;;;;5031311;28;20462;-63
2023/06/07 09:51:14;;;;;;;6.07;2.70;;;36.00;1.00;;;;;;5024692;28;20483;-63
2023/06/07 09:53:52;;;;;;;4.80;2.50;;;35.40;1.00;;;;;;5028800;28;20974;-63
2023/06/07 09:56:21;;;;;;;9.20;3.00;;;34.80;1.00;;;;;;5027294;28;20497;-63
2023/06/07 09:58:50;;;;;;;5.93;3.00;;;34.30;1.00;;;;;;5026480;28;20467;-62
2023/06/07 10:01:32;;;;;;;6.60;3.40;;;33.70;1.00;;;;;;5025365;28;20477;-62
2023/06/07 10:04:00;;;;;;;6.63;2.93;;;33.30;1.00;;;;;;5025593;28;21272;-62
2023/06/07 10:06:27;;;;;;;4.70;2.87;;;33.00;1.00;;;;;;5025266;28;20475;-63
2023/06/07 10:08:56;;;;;;;5.57;3.70;;;32.80;1.00;;;;;;5026562;28;20463;-62
2023/06/07 10:11:26;;;;;;;5.40;3.20;;;32.50;1.00;;;;;;5026892;28;20489;-62
2023/06/07 10:13:54;;;;;;;5.63;3.70;;;32.20;1.00;;;;;;5025165;28;20467;-63
2023/06/07 10:16:22;;;;;;;5.70;3.20;;;31.80;1.00;;;;;;5025792;28;20489;-64
2023/06/07 10:18:53;;;;;;;4.83;2.93;;;31.40;1.00;;;;;;5027066;28;20463;-64
2023/06/07 10:21:21;;;;;;;6.10;3.30;;;31.20;1.00;;;;;;5026866;28;20462;-62
2023/06/07 10:23:51;;;;;;;5.70;3.07;;;30.80;1.00;;;;;;5025917;28;20486;-63
2023/06/07 10:26:23;;;;;;;5.70;3.40;;;30.60;1.00;;;;;;5025583;28;20487;-63
2023/06/07 10:28:55;;;;;;;6.23;3.60;;;30.40;1.00;;;;;;5026267;28;20463;-62
2023/06/07 10:31:27;;;;;;;5.43;3.40;;;30.00;1.00;;;;;;5025871;28;20493;-63
2023/06/07 10:33:57;;;;;;;6.07;3.83;;;29.80;1.00;;;;;;5025018;28;20462;-64
2023/06/07 10:36:25;;;;;;;5.27;3.23;;;29.40;1.00;;;;;;5023814;28;20534;-64
2023/06/07 10:38:54;;;;;;;7.00;3.40;;;29.10;1.00;;;;;;5024080;28;20474;-64
2023/06/07 10:41:21;;;;;;;6.17;2.97;;;28.90;1.00;;;;;;5022344;28;20459;-64
2023/06/07 10:43:48;;;;;;;8.57;3.73;;;28.90;1.00;;;;;;5024263;28;20465;-64
2023/06/07 10:46:20;;;;;;;6.17;3.43;;;28.80;1.00;;;;;;5021833;28;20490;-64
2023/06/07 10:48:47;;;;;;;5.90;3.37;;;28.60;1.00;;;;;;5025175;28;21002;-64
2023/06/07 10:51:15;;;;;;;6.83;3.93;;;28.50;1.00;;;;;;5024402;28;20502;-65
2023/06/07 10:53:52;;;;;;;7.17;4.07;;;28.30;1.00;;;;;;5025219;28;20474;-64
2023/06/07 10:56:32;;;;;;;9.90;4.10;;;28.00;1.00;;;;;;5026226;28;21015;-64
2023/06/07 10:59:20;;;;;;;5.37;2.80;;;27.80;1.00;;;;;;5024533;28;21007;-64
2023/06/07 11:01:50;;;;;;;5.10;2.90;;;27.60;1.00;;;;;;5024078;28;20474;-64
2023/06/07 11:04:52;;;;;;;6.30;3.57;;;27.50;1.00;;;;;;5025516;28;20508;-64
2023/06/07 11:07:20;;;;;;;5.43;2.90;;;27.50;1.00;;;;;;5024421;28;20478;-64
2023/06/07 11:09:49;;;;;;;4.93;3.00;;;27.50;1.00;;;;;;5022541;28;20985;-64
2023/06/07 11:12:53;;;;;;;7.37;3.60;;;27.60;1.00;;;;;;5022858;28;20501;-64
2023/06/07 11:15:21;;;;;;;7.97;3.53;;;27.70;1.00;;;;;;5020721;28;20471;-64
2023/06/07 11:17:54;;;;;;;5.57;2.90;;;27.70;1.00;;;;;;5024229;28;20489;-64
2023/06/07 11:20:49;;;;;;;6.63;3.60;;;27.70;1.00;;;;;;5027269;28;20550;-65
2023/06/07 11:23:24;;;;;;;9.27;3.60;;;27.70;1.00;;;;;;5025806;28;20466;-65
2023/06/07 11:25:52;;;;;;;5.47;3.40;;;27.70;1.00;;;;;;5026339;28;20469;-64
2023/06/07 11:28:22;;;;;;;5.80;3.20;;;27.70;1.00;;;;;;5021178;28;20473;-65
2023/06/07 11:30:51;;;;;;;6.47;3.30;;;27.60;1.00;;;;;;5025788;28;20478;-65
2023/06/07 11:33:20;;;;;;;5.70;3.63;;;27.60;1.00;;;;;;5026419;28;20542;-65
2023/06/07 11:35:46;;;;;;;5.47;3.30;;;27.60;1.00;;;;;;5025075;28;20589;-64
2023/06/07 11:38:13;;;;;;;5.80;3.23;;;27.50;1.00;;;;;;5029230;28;20529;-64
2023/06/07 11:40:40;;;;;;;9.33;3.37;;;27.40;1.00;;;;;;5028229;28;20478;-64
2023/06/07 11:43:10;;;;;;;6.20;3.50;;;27.30;1.00;;;;;;5029486;28;20475;-64
2023/06/07 11:45:38;;;;;;;7.00;3.87;;;27.10;1.00;;;;;;5026893;28;20536;-65
2023/06/07 11:48:05;;;;;;;5.30;2.83;;;27.00;1.00;;;;;;5025277;28;20556;-64
2023/06/07 11:50:35;;;;;;;6.53;3.70;;;26.90;1.00;;;;;;5028292;28;20493;-64
2023/06/07 11:53:02;;;;;;;6.97;3.60;;;26.70;1.00;;;;;;5027454;28;20499;-63
2023/06/07 11:55:29;;;;;;;5.97;3.40;;;26.60;1.00;;;;;;5027738;28;20471;-64
2023/06/07 11:57:56;;;;;;;6.33;3.70;;;26.60;1.00;;;;;;5028017;28;20485;-63
2023/06/07 12:00:24;;;;;;;5.40;3.33;;;26.50;1.00;;;;;;5027423;28;20461;-63
2023/06/07 12:02:51;;;;;;;5.57;3.37;;;26.40;1.00;;;;;;5028287;28;20506;-64
2023/06/07 12:05:18;;;;;;;5.70;3.57;;;26.40;1.00;;;;;;5024564;28;20462;-63
2023/06/07 12:07:55;;;;;;;5.27;3.10;;;26.40;1.00;;;;;;5042267;22;20537;-67
2023/06/07 12:10:24;;;;;;;8.20;3.20;;;26.40;1.00;;;;;;5026828;28;21134;-66
2023/06/07 12:13:07;;;;;;;6.50;3.87;;;26.40;1.00;;;;;;5025890;28;20474;-66
2023/06/07 12:15:35;;;;;;;6.80;3.60;;;26.20;1.00;;;;;;5024424;28;20470;-67
2023/06/07 12:18:02;;;;;;;7.53;3.73;;;26.10;1.00;;;;;;5019823;28;21237;-68
2023/06/07 12:20:30;;;;;;;6.10;3.40;;;26.20;1.00;;;;;;5028124;28;20494;-67
2023/06/07 12:23:05;;;;;;;6.03;3.33;;;26.20;1.00;;;;;;5020123;28;20469;-67
2023/06/07 12:25:34;;;;;;;5.40;3.17;;;26.10;1.00;;;;;;5026768;28;20557;-68
2023/06/07 12:28:05;;;;;;;6.20;3.90;;;26.10;1.00;;;;;;5025086;28;20554;-66
2023/06/07 12:30:37;;;;;;;6.40;3.63;;;26.00;1.00;;;;;;5026268;28;20497;-67
2023/06/07 12:33:04;;;;;;;6.23;4.20;;;26.00;1.00;;;;;;5027169;28;20550;-68
2023/06/07 12:35:37;;;;;;;9.03;4.17;;;26.00;1.00;;;;;;5028452;28;20459;-67
2023/06/07 12:38:05;;;;;;;5.70;3.47;;;25.90;1.00;;;;;;5027773;28;20920;-67
2023/06/07 12:40:32;;;;;;;6.50;3.23;;;25.90;1.00;;;;;;5025195;28;20467;-67
2023/06/07 12:42:59;;;;;;;5.90;3.80;;;25.80;1.00;;;;;;5021408;28;20465;-67
2023/06/07 12:45:26;;;;;;;5.63;3.03;;;25.80;1.00;;;;;;5023635;28;20546;-67
2023/06/07 12:47:53;;;;;;;6.50;3.50;;;25.70;1.00;;;;;;5021859;28;20874;-67
2023/06/07 12:50:20;;;;;;;5.53;3.53;;;25.70;1.00;;;;;;5020877;28;20515;-67
2023/06/07 12:52:47;;;;;;;8.03;3.67;;;25.60;1.00;;;;;;5022505;28;20825;-67
2023/06/07 12:55:15;;;;;;;6.17;3.77;;;25.60;1.00;;;;;;5020224;28;20464;-67
2023/06/07 12:57:42;;;;;;;6.20;4.07;;;25.60;1.00;;;;;;5024413;28;20494;-67
2023/06/07 13:00:09;;;;;;;5.50;3.50;;;25.60;1.00;;;;;;5022146;28;20470;-68